Time,TemperatureF,DewpointF,PressureIn,WindDirection,WindDirectionDegrees,WindSpeedMPH,WindSpeedGustMPH,Humidity,HourlyPrecipIn,Conditions,Clouds,dailyrainin,SoftwareType,DateUTC
2013-05-20 00:30:00,74.3,66.0,29.77,SSW,203,4.0,4.0,75,0.00,,,0.00,WUHU21623XXSP,2013-05-20 05:30:00,
2013-05-20 01:30:00,73.2,64.6,29.76,SW,225,6.3,6.3,74,0.00,,,0.00,WUHU21623XXSP,2013-05-20 06:30:00,
2013-05-20 02:30:00,73.0,64.4,29.73,South,180,9.2,9.2,74,0.00,,,0.00,WUHU21623XXSP,2013-05-20 07:30:00,
2013-05-20 03:30:00,72.5,64.6,29.75,SSW,203,9.6,9.6,76,0.00,,,0.00,WUHU21623XXSP,2013-05-20 08:30:00,
2013-05-20 04:30:00,72.5,65.0,29.76,SW,225,7.8,7.8,77,0.00,,,0.00,WUHU21623XXSP,2013-05-20 09:30:00,
2013-05-20 05:30:00,68.7,61.0,29.81,WSW,248,0.0,0.0,76,0.00,,,0.00,WUHU21623XXSP,2013-05-20 10:30:00,
2013-05-20 06:30:00,67.6,59.9,29.84,WSW,248,3.1,3.1,76,0.00,,,0.00,WUHU21623XXSP,2013-05-20 11:30:00,
2013-05-20 07:39:00,66.9,58.8,29.79,SSW,203,0.0,0.0,75,0.00,,,0.00,WUHU21623XXSP,2013-05-20 12:39:00,
2013-05-20 07:44:00,67.6,59.8,29.78,SSE,157,7.8,7.8,76,1.32,,,1.32,WUHU21623XXSP,2013-05-20 12:44:00,
2013-05-20 07:49:00,67.6,59.5,29.78,SE,135,0.0,8.3,75,1.32,,,1.32,WUHU21623XXSP,2013-05-20 12:49:00,
2013-05-20 07:54:00,67.8,59.6,29.78,SSE,157,4.5,8.3,75,1.32,,,1.32,WUHU21623XXSP,2013-05-20 12:54:00,
2013-05-20 07:59:00,67.8,59.6,29.77,SE,135,0.0,8.3,75,1.32,,,1.32,WUHU21623XXSP,2013-05-20 12:59:00,
2013-05-20 08:04:00,68.2,60.0,29.76,SE,135,5.4,7.4,75,1.32,,,1.32,WUHU21623XXSP,2013-05-20 13:04:00,
2013-05-20 08:09:00,68.5,59.9,29.76,SSE,157,5.4,10.3,74,1.32,,,1.32,WUHU21623XXSP,2013-05-20 13:09:00,
2013-05-20 08:14:00,69.1,60.4,29.77,South,180,6.3,11.2,74,1.32,,,1.32,WUHU21623XXSP,2013-05-20 13:14:00,
2013-05-20 08:19:00,69.4,60.4,29.77,SSE,157,5.6,13.2,73,1.32,,,1.32,WUHU21623XXSP,2013-05-20 13:19:00,
2013-05-20 08:30:00,69.6,59.9,29.78,SSW,203,0.0,12.3,71,0.00,,,0.00,WUHU21623XXSP,2013-05-20 13:30:00,
2013-05-20 09:30:00,70.7,60.2,29.77,WSW,248,12.1,12.1,69,0.00,,,0.00,WUHU21623XXSP,2013-05-20 14:30:00,
2013-05-20 10:30:00,75.4,62.6,29.77,SSW,203,6.0,6.0,64,0.00,,,0.00,WUHU21623XXSP,2013-05-20 15:30:00,
2013-05-20 11:30:00,81.5,63.4,29.76,West,270,8.3,8.3,54,0.00,,,0.00,WUHU21623XXSP,2013-05-20 16:30:00,
2013-05-20 12:30:00,84.9,61.2,29.78,WSW,248,14.1,14.1,45,0.00,,,0.00,WUHU21623XXSP,2013-05-20 17:30:00,
2013-05-20 12:50:00,85.3,60.9,29.78,WSW,247,5.1,5.1,44,0.00,,,0.00,WUHU21623XXSP,2013-05-20 17:50:00,
2013-05-20 12:55:00,85.6,61.8,29.78,West,270,13.4,13.4,45,1.32,,,1.32,WUHU21623XXSP,2013-05-20 17:55:00,
2013-05-20 13:00:00,85.8,62.0,29.78,WSW,247,8.5,20.6,45,1.32,,,1.32,WUHU21623XXSP,2013-05-20 18:00:00,
2013-05-20 13:05:00,86.2,61.7,29.78,WSW,247,14.3,23.0,44,1.32,,,1.32,WUHU21623XXSP,2013-05-20 18:05:00,
2013-05-20 13:10:00,86.2,62.3,29.79,West,270,13.4,23.0,45,1.32,,,1.32,WUHU21623XXSP,2013-05-20 18:10:00,
2013-05-20 13:15:00,86.2,61.1,29.78,WSW,247,11.4,20.6,43,1.32,,,1.32,WUHU21623XXSP,2013-05-20 18:15:00,
2013-05-20 13:20:00,86.4,61.2,29.79,WSW,247,10.3,22.6,43,1.32,,,1.32,WUHU21623XXSP,2013-05-20 18:20:00,
2013-05-20 13:25:00,86.5,62.0,29.79,SSW,202,7.8,22.6,44,1.32,,,1.32,WUHU21623XXSP,2013-05-20 18:25:00,
2013-05-20 13:30:00,86.7,62.2,29.79,WSW,247,7.6,19.7,44,0.00,,,1.32,WUHU21623XXSP,2013-05-20 18:30:00,
2013-05-20 13:35:00,86.7,62.2,29.79,WSW,247,13.6,20.8,44,0.00,,,1.32,WUHU21623XXSP,2013-05-20 18:35:00,
2013-05-20 13:40:00,86.5,61.4,29.79,WSW,247,7.6,20.8,43,0.00,,,1.32,WUHU21623XXSP,2013-05-20 18:40:00,
2013-05-20 13:46:00,86.7,61.5,29.80,WNW,292,6.7,22.4,43,0.00,,,1.32,WUHU21623XXSP,2013-05-20 18:46:00,
2013-05-20 13:51:00,87.1,61.2,29.79,SSW,202,9.2,25.5,42,0.00,,,1.32,WUHU21623XXSP,2013-05-20 18:51:00,
2013-05-20 13:56:00,87.4,62.2,29.80,WSW,247,11.4,25.5,43,0.00,,,1.32,WUHU21623XXSP,2013-05-20 18:56:00,
2013-05-20 14:01:00,87.3,62.7,29.79,West,270,16.8,21.3,44,0.00,,,1.32,WUHU21623XXSP,2013-05-20 19:01:00,
2013-05-20 14:06:00,87.1,61.2,29.80,West,270,10.7,21.3,42,0.00,,,1.32,WUHU21623XXSP,2013-05-20 19:06:00,
2013-05-20 14:11:00,87.1,61.2,29.80,WSW,247,11.0,20.8,42,0.00,,,1.32,WUHU21623XXSP,2013-05-20 19:11:00,
2013-05-20 14:16:00,87.1,61.9,29.80,WSW,247,10.1,17.2,43,0.00,,,1.32,WUHU21623XXSP,2013-05-20 19:16:00,
2013-05-20 14:21:00,87.1,61.2,29.80,WSW,247,9.8,22.8,42,0.00,,,1.32,WUHU21623XXSP,2013-05-20 19:21:00,
2013-05-20 14:26:00,87.1,61.9,29.80,WSW,247,11.9,22.8,43,0.00,,,1.32,WUHU21623XXSP,2013-05-20 19:26:00,
2013-05-20 14:31:00,86.9,61.1,29.81,WSW,247,11.9,23.0,42,0.00,,,1.32,WUHU21623XXSP,2013-05-20 19:31:00,
2013-05-20 14:36:00,87.1,61.9,29.81,SW,225,6.9,23.0,43,0.00,,,1.32,WUHU21623XXSP,2013-05-20 19:36:00,
2013-05-20 14:41:00,87.1,61.9,29.81,WSW,247,17.4,30.6,43,0.00,,,1.32,WUHU21623XXSP,2013-05-20 19:41:00,
2013-05-20 14:46:00,87.1,61.2,29.81,WSW,247,15.2,30.6,42,0.00,,,1.32,WUHU21623XXSP,2013-05-20 19:46:00,
2013-05-20 14:51:00,86.7,62.2,29.81,WSW,247,17.7,30.4,44,0.00,,,1.32,WUHU21623XXSP,2013-05-20 19:51:00,
2013-05-20 14:56:00,86.2,62.3,29.81,West,270,16.6,30.4,45,0.00,,,1.32,WUHU21623XXSP,2013-05-20 19:56:00,
2013-05-20 15:01:00,85.3,62.1,29.81,WSW,247,18.1,25.9,46,0.00,,,1.32,WUHU21623XXSP,2013-05-20 20:01:00,
2013-05-20 15:06:00,84.4,62.0,29.80,WSW,247,9.6,25.9,47,0.00,,,1.32,WUHU21623XXSP,2013-05-20 20:06:00,
2013-05-20 15:30:00,82.6,62.8,29.79,WSW,248,7.4,7.4,51,0.00,,,0.00,WUHU21623XXSP,2013-05-20 20:30:00,
2013-05-20 16:30:00,84.0,61.1,29.76,WSW,248,6.7,6.7,46,0.00,,,0.00,WUHU21623XXSP,2013-05-20 21:30:00,
2013-05-20 17:30:00,84.6,61.6,29.74,SW,225,4.9,4.9,46,0.00,,,0.00,WUHU21623XXSP,2013-05-20 22:30:00,
2013-05-20 18:30:00,84.0,61.7,29.72,SW,225,11.2,11.2,47,0.00,,,0.00,WUHU21623XXSP,2013-05-20 23:30:00,
2013-05-20 19:30:00,81.0,64.0,29.70,SSW,203,5.6,5.6,56,0.00,,,0.00,WUHU21623XXSP,2013-05-21 00:30:00,
2013-05-20 20:30:00,77.5,64.6,29.72,SSW,203,6.9,6.9,64,0.00,,,0.00,WUHU21623XXSP,2013-05-21 01:30:00,
2013-05-20 21:30:00,76.3,64.8,29.71,SW,225,9.4,9.4,67,0.00,,,0.00,WUHU21623XXSP,2013-05-21 02:30:00,
2013-05-20 22:30:00,68.5,61.1,29.76,West,270,10.7,10.7,77,0.00,,,0.00,WUHU21623XXSP,2013-05-21 03:30:00,
2013-05-20 23:30:00,65.1,59.5,29.75,West,270,11.4,11.4,82,0.00,,,0.06,WUHU21623XXSP,2013-05-21 04:30:00,